createdAt,value
2023-03-03T00:00:19.457Z,1016.70
2023-03-03T00:01:19.455Z,1016.68
2023-03-03T00:02:19.465Z,1016.68
2023-03-03T00:03:19.506Z,1016.68
2023-03-03T00:04:19.401Z,1016.69
2023-03-03T00:05:19.415Z,1016.67
2023-03-03T00:06:19.391Z,1016.66
2023-03-03T00:07:19.405Z,1016.65
2023-03-03T00:08:19.387Z,1016.63
2023-03-03T00:09:19.367Z,1016.63
2023-03-03T00:10:19.344Z,1016.63
2023-03-03T00:11:19.342Z,1016.62
2023-03-03T00:12:19.338Z,1016.65
2023-03-03T00:13:19.368Z,1016.67
2023-03-03T00:14:19.308Z,1016.69
2023-03-03T00:15:19.317Z,1016.70
2023-03-03T00:16:19.328Z,1016.68
2023-03-03T00:17:19.294Z,1016.67
2023-03-03T00:18:19.253Z,1016.65
2023-03-03T00:19:19.300Z,1016.61
2023-03-03T00:20:19.227Z,1016.59
2023-03-03T00:21:19.260Z,1016.56
2023-03-03T00:22:19.222Z,1016.56
2023-03-03T00:23:19.239Z,1016.58
2023-03-03T00:24:19.258Z,1016.59
2023-03-03T00:25:19.240Z,1016.61
2023-03-03T00:26:19.187Z,1016.61
2023-03-03T00:27:19.184Z,1016.61
2023-03-03T00:28:19.221Z,1016.61
2023-03-03T00:29:19.173Z,1016.60
2023-03-03T00:30:19.127Z,1016.60
2023-03-03T00:31:19.248Z,1016.61
2023-03-03T00:32:19.203Z,1016.61
2023-03-03T00:33:19.119Z,1016.62
2023-03-03T00:34:19.087Z,1016.62
2023-03-03T00:35:19.195Z,1016.61
2023-03-03T00:36:19.084Z,1016.60
2023-03-03T00:37:19.082Z,1016.58
2023-03-03T00:38:19.045Z,1016.56
2023-03-03T00:39:19.069Z,1016.54
2023-03-03T00:40:19.042Z,1016.53
2023-03-03T00:41:19.056Z,1016.54
2023-03-03T00:42:19.013Z,1016.54
2023-03-03T00:43:19.021Z,1016.58
2023-03-03T00:44:19.002Z,1016.60
2023-03-03T00:45:19.001Z,1016.61
2023-03-03T00:46:19.097Z,1016.61
2023-03-03T00:47:19.007Z,1016.61
2023-03-03T00:48:18.944Z,1016.61
2023-03-03T00:49:18.963Z,1016.59
2023-03-03T00:50:18.918Z,1016.59
2023-03-03T00:51:18.942Z,1016.59
2023-03-03T00:52:18.969Z,1016.61
2023-03-03T00:53:18.925Z,1016.62
2023-03-03T00:54:18.953Z,1016.63
2023-03-03T00:55:18.908Z,1016.64
2023-03-03T00:56:18.890Z,1016.65
2023-03-03T00:57:18.893Z,1016.68
2023-03-03T00:58:18.871Z,1016.71
2023-03-03T00:59:18.866Z,1016.75
2023-03-03T01:00:18.830Z,1016.76
2023-03-03T01:01:18.920Z,1016.75
2023-03-03T01:02:18.848Z,1016.72
2023-03-03T01:03:18.831Z,1016.69
2023-03-03T01:04:18.800Z,1016.68
2023-03-03T01:05:18.833Z,1016.68
2023-03-03T01:06:18.758Z,1016.71
2023-03-03T01:07:18.777Z,1016.72
2023-03-03T01:08:18.749Z,1016.72
2023-03-03T01:09:18.769Z,1016.70
2023-03-03T01:10:18.741Z,1016.67
2023-03-03T01:11:18.727Z,1016.64
2023-03-03T01:12:18.708Z,1016.61
2023-03-03T01:13:18.711Z,1016.60
2023-03-03T01:14:18.713Z,1016.62
2023-03-03T01:15:18.726Z,1016.64
2023-03-03T01:16:18.700Z,1016.66
2023-03-03T01:17:18.680Z,1016.68
2023-03-03T01:18:18.649Z,1016.67
2023-03-03T01:19:18.683Z,1016.64
2023-03-03T01:20:18.628Z,1016.61
2023-03-03T01:21:18.649Z,1016.58
2023-03-03T01:22:18.597Z,1016.54
2023-03-03T01:23:18.627Z,1016.53
2023-03-03T01:24:18.589Z,1016.52
2023-03-03T01:25:18.617Z,1016.53
2023-03-03T01:26:18.594Z,1016.56
2023-03-03T01:27:18.571Z,1016.58
2023-03-03T01:28:18.539Z,1016.59
2023-03-03T01:29:18.549Z,1016.59
2023-03-03T01:30:18.516Z,1016.58
2023-03-03T01:31:18.596Z,1016.55
2023-03-03T01:32:18.533Z,1016.55
2023-03-03T01:33:18.537Z,1016.57
2023-03-03T01:34:18.475Z,1016.59
2023-03-03T01:35:18.541Z,1016.61
2023-03-03T01:36:18.478Z,1016.62
2023-03-03T01:37:18.468Z,1016.64
2023-03-03T01:38:18.434Z,1016.66
2023-03-03T01:39:18.456Z,1016.66
2023-03-03T01:40:18.416Z,1016.71
2023-03-03T01:41:18.428Z,1016.72
2023-03-03T01:42:18.442Z,1016.70
2023-03-03T01:43:18.407Z,1016.68
2023-03-03T01:44:18.383Z,1016.66
2023-03-03T01:45:18.382Z,1016.65
2023-03-03T01:46:18.408Z,1016.62
2023-03-03T01:47:18.378Z,1016.59
2023-03-03T01:48:18.369Z,1016.56
2023-03-03T01:49:18.350Z,1016.53
2023-03-03T01:50:18.311Z,1016.52
2023-03-03T01:51:18.337Z,1016.48
2023-03-03T01:52:18.287Z,1016.48
2023-03-03T01:53:18.345Z,1016.44
2023-03-03T01:54:18.285Z,1016.41
2023-03-03T01:55:18.278Z,1016.39
2023-03-03T01:56:18.263Z,1016.36
2023-03-03T01:57:18.254Z,1016.35
2023-03-03T01:58:18.242Z,1016.36
2023-03-03T01:59:18.256Z,1016.37
2023-03-03T02:00:18.203Z,1016.40
2023-03-03T02:01:18.302Z,1016.42
2023-03-03T02:02:18.207Z,1016.46
2023-03-03T02:03:18.240Z,1016.49
2023-03-03T02:04:18.162Z,1016.52
2023-03-03T02:05:18.203Z,1016.54
2023-03-03T02:06:18.140Z,1016.56
2023-03-03T02:07:18.158Z,1016.56
2023-03-03T02:08:18.137Z,1016.55
2023-03-03T02:09:18.151Z,1016.54
2023-03-03T02:10:18.150Z,1016.56
2023-03-03T02:11:18.136Z,1016.58
2023-03-03T02:12:18.136Z,1016.61
2023-03-03T02:13:18.097Z,1016.62
2023-03-03T02:14:18.070Z,1016.63
2023-03-03T02:15:18.079Z,1016.64
2023-03-03T02:16:18.148Z,1016.66
2023-03-03T02:17:18.063Z,1016.66
2023-03-03T02:18:18.089Z,1016.65
2023-03-03T02:19:18.039Z,1016.64
2023-03-03T02:20:18.021Z,1016.64
2023-03-03T02:21:18.046Z,1016.63
2023-03-03T02:22:18.008Z,1016.63
2023-03-03T02:23:18.004Z,1016.62
2023-03-03T02:24:17.977Z,1016.60
2023-03-03T02:25:18.000Z,1016.57
2023-03-03T02:26:17.949Z,1016.53
2023-03-03T02:27:17.959Z,1016.51
2023-03-03T02:28:17.944Z,1016.53
2023-03-03T02:29:17.946Z,1016.57
2023-03-03T02:30:17.915Z,1016.63
2023-03-03T02:31:17.934Z,1016.67
2023-03-03T02:32:17.920Z,1016.67
2023-03-03T02:33:17.902Z,1016.64
2023-03-03T02:34:17.896Z,1016.63
2023-03-03T02:35:17.923Z,1016.61
2023-03-03T02:36:17.857Z,1016.61
2023-03-03T02:37:17.862Z,1016.61
2023-03-03T02:38:17.865Z,1016.62
2023-03-03T02:39:17.854Z,1016.62
2023-03-03T02:40:17.817Z,1016.61
2023-03-03T02:41:17.820Z,1016.60
2023-03-03T02:42:17.802Z,1016.59
2023-03-03T02:43:17.799Z,1016.61
2023-03-03T02:44:17.794Z,1016.64
2023-03-03T02:45:17.804Z,1016.67
2023-03-03T02:46:17.745Z,1016.69
2023-03-03T02:47:17.758Z,1016.69
2023-03-03T02:48:17.736Z,1016.67
2023-03-03T02:49:17.763Z,1016.66
2023-03-03T02:50:17.711Z,1016.65
2023-03-03T02:51:17.710Z,1016.65
2023-03-03T02:52:17.681Z,1016.64
2023-03-03T02:53:17.687Z,1016.64
2023-03-03T02:54:17.686Z,1016.64
2023-03-03T02:55:17.690Z,1016.63
2023-03-03T02:56:17.633Z,1016.60
2023-03-03T02:57:17.656Z,1016.58
2023-03-03T02:58:17.618Z,1016.56
2023-03-03T02:59:17.629Z,1016.55
2023-03-03T03:00:17.597Z,1016.54
2023-03-03T03:01:17.660Z,1016.53
2023-03-03T03:02:17.569Z,1016.53
2023-03-03T03:03:17.591Z,1016.52
2023-03-03T03:04:17.625Z,1016.52
2023-03-03T03:05:17.582Z,1016.53
2023-03-03T03:06:17.591Z,1016.55
2023-03-03T03:07:17.540Z,1016.55
2023-03-03T03:08:17.507Z,1016.54
2023-03-03T03:09:17.543Z,1016.54
2023-03-03T03:10:17.505Z,1016.56
2023-03-03T03:11:17.502Z,1016.57
2023-03-03T03:12:17.490Z,1016.60
2023-03-03T03:13:17.487Z,1016.62
2023-03-03T03:14:17.472Z,1016.61
2023-03-03T03:15:17.477Z,1016.60
2023-03-03T03:16:17.447Z,1016.59
2023-03-03T03:17:17.441Z,1016.58
2023-03-03T03:18:17.430Z,1016.58
2023-03-03T03:19:17.430Z,1016.59
2023-03-03T03:20:17.395Z,1016.61
2023-03-03T03:21:17.404Z,1016.63
2023-03-03T03:22:17.362Z,1016.65
2023-03-03T03:23:17.384Z,1016.66
2023-03-03T03:24:17.368Z,1016.67
2023-03-03T03:25:17.373Z,1016.68
2023-03-03T03:26:17.326Z,1016.69
2023-03-03T03:27:17.344Z,1016.69
2023-03-03T03:28:17.309Z,1016.68
2023-03-03T03:29:17.321Z,1016.68
2023-03-03T03:30:17.324Z,1016.70
2023-03-03T03:31:17.295Z,1016.70
2023-03-03T03:32:17.318Z,1016.67
2023-03-03T03:33:17.288Z,1016.65
2023-03-03T03:34:17.247Z,1016.65
2023-03-03T03:35:17.382Z,1016.66
2023-03-03T03:36:17.230Z,1016.67
2023-03-03T03:37:17.231Z,1016.68
2023-03-03T03:38:17.220Z,1016.68
2023-03-03T03:39:17.221Z,1016.67
2023-03-03T03:40:17.184Z,1016.66
2023-03-03T03:41:17.220Z,1016.67
2023-03-03T03:42:17.168Z,1016.68
2023-03-03T03:43:17.177Z,1016.70
2023-03-03T03:44:17.163Z,1016.72
2023-03-03T03:45:17.154Z,1016.72
2023-03-03T03:46:17.249Z,1016.72
2023-03-03T03:47:17.171Z,1016.68
2023-03-03T03:48:17.098Z,1016.66
2023-03-03T03:49:18.875Z,1016.63
2023-03-03T03:50:17.077Z,1016.62
2023-03-03T03:51:17.092Z,1016.63
2023-03-03T03:52:17.057Z,1016.65
2023-03-03T03:53:17.083Z,1016.69
2023-03-03T03:54:17.053Z,1016.71
2023-03-03T03:55:17.063Z,1016.73
2023-03-03T03:56:17.019Z,1016.75
2023-03-03T03:57:17.026Z,1016.73
2023-03-03T03:58:17.046Z,1016.72
2023-03-03T03:59:16.991Z,1016.69
2023-03-03T04:00:17.005Z,1016.68
2023-03-03T04:01:16.984Z,1016.65
2023-03-03T04:02:17.067Z,1016.66
2023-03-03T04:03:17.094Z,1016.67
2023-03-03T04:04:17.014Z,1016.72
2023-03-03T04:05:16.936Z,1016.72
2023-03-03T04:06:16.947Z,1016.72
2023-03-03T04:07:16.924Z,1016.74
2023-03-03T04:08:16.935Z,1016.75
2023-03-03T04:09:16.892Z,1016.76
2023-03-03T04:10:16.917Z,1016.77
2023-03-03T04:11:16.892Z,1016.77
2023-03-03T04:12:16.889Z,1016.73
2023-03-03T04:13:16.853Z,1016.72
2023-03-03T04:14:16.867Z,1016.71
2023-03-03T04:15:16.854Z,1016.73
2023-03-03T04:16:16.845Z,1016.74
2023-03-03T04:17:16.813Z,1016.74
2023-03-03T04:18:16.827Z,1016.76
2023-03-03T04:19:16.800Z,1016.75
2023-03-03T04:20:16.814Z,1016.76
2023-03-03T04:21:16.818Z,1016.77
2023-03-03T04:22:16.785Z,1016.73
2023-03-03T04:23:16.749Z,1016.71
2023-03-03T04:24:16.772Z,1016.71
2023-03-03T04:25:16.735Z,1016.72
2023-03-03T04:26:16.753Z,1016.73
2023-03-03T04:27:16.734Z,1016.72
2023-03-03T04:28:16.737Z,1016.72
2023-03-03T04:29:16.702Z,1016.73
2023-03-03T04:30:16.705Z,1016.73
2023-03-03T04:31:16.676Z,1016.72
2023-03-03T04:32:16.746Z,1016.71
2023-03-03T04:33:16.660Z,1016.70
2023-03-03T04:34:16.671Z,1016.69
2023-03-03T04:35:16.638Z,1016.70
2023-03-03T04:36:16.635Z,1016.69
2023-03-03T04:37:16.616Z,1016.68
2023-03-03T04:38:16.645Z,1016.68
2023-03-03T04:39:16.614Z,1016.66
2023-03-03T04:40:16.601Z,1016.64
2023-03-03T04:41:16.591Z,1016.61
2023-03-03T04:42:16.576Z,1016.63
2023-03-03T04:43:16.548Z,1016.66
2023-03-03T04:44:16.589Z,1016.67
2023-03-03T04:45:16.523Z,1016.68
2023-03-03T04:46:16.676Z,1016.70
2023-03-03T04:47:16.506Z,1016.70
2023-03-03T04:48:16.516Z,1016.70
2023-03-03T04:49:16.507Z,1016.70
2023-03-03T04:50:16.553Z,1016.72
2023-03-03T04:51:16.472Z,1016.76
2023-03-03T04:52:16.479Z,1016.79
2023-03-03T04:53:16.447Z,1016.79
2023-03-03T04:54:16.461Z,1016.77
2023-03-03T04:55:16.435Z,1016.76
2023-03-03T04:56:16.485Z,1016.73
2023-03-03T04:57:16.429Z,1016.73
2023-03-03T04:58:16.419Z,1016.73
2023-03-03T04:59:16.404Z,1016.73
2023-03-03T05:00:16.411Z,1016.71
2023-03-03T05:01:16.424Z,1016.73
2023-03-03T05:02:16.381Z,1016.75
2023-03-03T05:03:16.348Z,1016.77
2023-03-03T05:04:16.403Z,1016.79
2023-03-03T05:05:16.350Z,1016.78
2023-03-03T05:06:16.372Z,1016.78
2023-03-03T05:07:16.348Z,1016.79
2023-03-03T05:08:16.313Z,1016.81
2023-03-03T05:09:16.280Z,1016.82
2023-03-03T05:10:16.295Z,1016.83
2023-03-03T05:11:16.302Z,1016.85
2023-03-03T05:12:16.286Z,1016.86
2023-03-03T05:13:16.252Z,1016.89
2023-03-03T05:14:16.253Z,1016.91
2023-03-03T05:15:16.241Z,1016.90
2023-03-03T05:16:16.266Z,1016.89
2023-03-03T05:17:16.248Z,1016.88
2023-03-03T05:18:16.214Z,1016.87
2023-03-03T05:19:16.498Z,1016.85
2023-03-03T05:20:16.178Z,1016.83
2023-03-03T05:21:16.156Z,1016.84
2023-03-03T05:22:16.162Z,1016.85
2023-03-03T05:23:16.152Z,1016.86
2023-03-03T05:24:16.179Z,1016.86
2023-03-03T05:25:16.112Z,1016.85
2023-03-03T05:26:16.128Z,1016.84
2023-03-03T05:27:16.089Z,1016.84
2023-03-03T05:28:16.099Z,1016.83
2023-03-03T05:29:16.069Z,1016.81
2023-03-03T05:30:16.104Z,1016.77
2023-03-03T05:31:16.079Z,1016.76
2023-03-03T05:32:16.131Z,1016.77
2023-03-03T05:33:16.051Z,1016.77
2023-03-03T05:34:16.044Z,1016.77
2023-03-03T05:35:16.002Z,1016.77
2023-03-03T05:36:16.029Z,1016.77
2023-03-03T05:37:15.977Z,1016.79
2023-03-03T05:38:15.989Z,1016.79
2023-03-03T05:39:15.960Z,1016.77
2023-03-03T05:40:15.972Z,1016.75
2023-03-03T05:41:15.956Z,1016.76
2023-03-03T05:42:15.959Z,1016.76
2023-03-03T05:43:15.928Z,1016.76
2023-03-03T05:44:15.925Z,1016.77
2023-03-03T05:45:15.923Z,1016.79
2023-03-03T05:46:16.085Z,1016.79
2023-03-03T05:47:18.520Z,1016.79
2023-03-03T05:48:15.887Z,1016.78
2023-03-03T05:49:15.854Z,1016.79
2023-03-03T05:50:15.867Z,1016.80
2023-03-03T05:51:15.841Z,1016.80
2023-03-03T05:52:15.842Z,1016.79
2023-03-03T05:53:15.827Z,1016.78
2023-03-03T05:54:15.829Z,1016.78
2023-03-03T05:55:15.796Z,1016.79
2023-03-03T05:56:15.809Z,1016.81
2023-03-03T05:57:15.779Z,1016.81
2023-03-03T05:58:15.805Z,1016.80
2023-03-03T05:59:15.774Z,1016.80
2023-03-03T06:00:15.782Z,1016.82
2023-03-03T06:01:15.759Z,1016.85
2023-03-03T06:02:15.752Z,1016.87
2023-03-03T06:03:15.798Z,1016.88
2023-03-03T06:04:15.729Z,1016.89
2023-03-03T06:05:15.692Z,1016.90
2023-03-03T06:06:15.716Z,1016.92
2023-03-03T06:07:15.692Z,1016.94
2023-03-03T06:08:15.706Z,1016.95
2023-03-03T06:09:15.663Z,1016.96
2023-03-03T06:10:15.676Z,1016.99
2023-03-03T06:11:15.632Z,1017.01
2023-03-03T06:12:15.643Z,1017.02
2023-03-03T06:13:15.673Z,1017.03
2023-03-03T06:14:15.628Z,1017.03
2023-03-03T06:15:15.668Z,1017.03
2023-03-03T06:16:15.640Z,1017.05
2023-03-03T06:17:15.595Z,1017.07
2023-03-03T06:18:15.615Z,1017.08
2023-03-03T06:19:15.567Z,1017.08
2023-03-03T06:20:15.567Z,1017.08
2023-03-03T06:21:15.531Z,1017.10
2023-03-03T06:22:15.543Z,1017.12
2023-03-03T06:23:15.518Z,1017.13
2023-03-03T06:24:15.566Z,1017.14
2023-03-03T06:25:15.494Z,1017.15
2023-03-03T06:26:15.514Z,1017.17
2023-03-03T06:27:15.472Z,1017.16
2023-03-03T06:28:15.484Z,1017.16
2023-03-03T06:29:15.880Z,1017.17
2023-03-03T06:30:15.474Z,1017.18
2023-03-03T06:31:15.472Z,1017.18
2023-03-03T06:32:15.588Z,1017.19
2023-03-03T06:33:15.402Z,1017.20
2023-03-03T06:34:15.417Z,1017.22
2023-03-03T06:35:15.413Z,1017.24
2023-03-03T06:36:15.400Z,1017.24
2023-03-03T06:37:15.376Z,1017.24
2023-03-03T06:38:15.384Z,1017.24
2023-03-03T06:39:15.338Z,1017.24
2023-03-03T06:40:15.353Z,1017.25
2023-03-03T06:41:15.333Z,1017.25
2023-03-03T06:42:15.337Z,1017.25
2023-03-03T06:43:15.302Z,1017.24
2023-03-03T06:44:15.318Z,1017.23
2023-03-03T06:45:15.282Z,1017.23
2023-03-03T06:46:15.388Z,1017.23
2023-03-03T06:47:15.270Z,1017.23
2023-03-03T06:48:15.272Z,1017.23
2023-03-03T06:49:15.242Z,1017.22
2023-03-03T06:50:15.249Z,1017.23
2023-03-03T06:51:15.215Z,1017.26
2023-03-03T06:52:15.267Z,1017.28
2023-03-03T06:53:15.238Z,1017.30
2023-03-03T06:54:15.219Z,1017.31
2023-03-03T06:55:15.184Z,1017.32
2023-03-03T06:56:15.188Z,1017.32
2023-03-03T06:57:15.158Z,1017.33
2023-03-03T06:58:15.193Z,1017.34
2023-03-03T06:59:15.136Z,1017.35
2023-03-03T07:00:15.172Z,1017.35
2023-03-03T07:01:15.150Z,1017.37
2023-03-03T07:02:15.128Z,1017.36
2023-03-03T07:03:15.124Z,1017.38
2023-03-03T07:04:15.214Z,1017.41
2023-03-03T07:05:15.082Z,1017.44
2023-03-03T07:06:15.091Z,1017.47
2023-03-03T07:07:15.087Z,1017.49
2023-03-03T07:08:15.077Z,1017.51
2023-03-03T07:09:15.040Z,1017.52
2023-03-03T07:10:15.066Z,1017.52
2023-03-03T07:11:15.030Z,1017.53
2023-03-03T07:12:15.036Z,1017.53
2023-03-03T07:13:15.006Z,1017.52
2023-03-03T07:14:15.015Z,1017.51
2023-03-03T07:15:15.005Z,1017.50
2023-03-03T07:16:15.118Z,1017.50
2023-03-03T07:17:14.960Z,1017.51
2023-03-03T07:18:14.986Z,1017.53
2023-03-03T07:19:14.954Z,1017.55
2023-03-03T07:20:14.959Z,1017.57
2023-03-03T07:21:14.952Z,1017.58
2023-03-03T07:22:14.937Z,1017.58
2023-03-03T07:23:14.903Z,1017.59
2023-03-03T07:24:14.925Z,1017.60
2023-03-03T07:25:14.885Z,1017.60
2023-03-03T07:26:14.907Z,1017.60
2023-03-03T07:27:14.864Z,1017.60
2023-03-03T07:28:14.875Z,1017.61
2023-03-03T07:29:14.842Z,1017.60
2023-03-03T07:30:14.854Z,1017.61
2023-03-03T07:31:14.907Z,1017.64
2023-03-03T07:32:14.859Z,1017.66
2023-03-03T07:33:14.802Z,1017.69
2023-03-03T07:34:14.892Z,1017.71
2023-03-03T07:35:14.782Z,1017.73
2023-03-03T07:36:14.792Z,1017.75
2023-03-03T07:37:14.828Z,1017.75
2023-03-03T07:38:14.773Z,1017.76
2023-03-03T07:39:14.742Z,1017.76
2023-03-03T07:40:14.758Z,1017.79
2023-03-03T07:41:14.735Z,1017.82
2023-03-03T07:42:14.733Z,1017.84
2023-03-03T07:43:14.720Z,1017.86
2023-03-03T07:44:14.712Z,1017.89
2023-03-03T07:45:14.684Z,1017.89
2023-03-03T07:46:14.749Z,1017.91
2023-03-03T07:47:14.658Z,1017.90
2023-03-03T07:48:14.675Z,1017.91
2023-03-03T07:49:14.651Z,1017.91
2023-03-03T07:50:14.653Z,1017.92
2023-03-03T07:51:14.618Z,1017.92
2023-03-03T07:52:14.632Z,1017.93
2023-03-03T07:53:14.601Z,1017.92
2023-03-03T07:54:14.625Z,1017.93
2023-03-03T07:55:14.580Z,1017.93
2023-03-03T07:56:14.592Z,1017.94
2023-03-03T07:57:14.559Z,1017.93
2023-03-03T07:58:14.576Z,1017.93
2023-03-03T07:59:14.561Z,1017.94
2023-03-03T08:00:14.561Z,1017.94
2023-03-03T08:01:14.531Z,1017.95
2023-03-03T08:02:14.532Z,1017.96
2023-03-03T08:03:14.501Z,1017.97
2023-03-03T08:04:14.600Z,1017.97
2023-03-03T08:05:14.668Z,1017.98
2023-03-03T08:06:14.491Z,1018.00
2023-03-03T08:07:14.469Z,1018.02
2023-03-03T08:08:14.470Z,1018.04
2023-03-03T08:09:14.439Z,1018.06
2023-03-03T08:10:14.464Z,1018.06
2023-03-03T08:11:14.418Z,1018.06
2023-03-03T08:12:14.424Z,1018.08
2023-03-03T08:13:14.411Z,1018.10
2023-03-03T08:14:14.408Z,1018.12
2023-03-03T08:15:14.420Z,1018.14
2023-03-03T08:16:14.438Z,1018.15
2023-03-03T08:17:14.365Z,1018.14
2023-03-03T08:18:14.332Z,1018.14
2023-03-03T08:19:14.346Z,1018.17
2023-03-03T08:20:14.313Z,1018.19
2023-03-03T08:21:14.333Z,1018.19
2023-03-03T08:22:14.288Z,1018.22
2023-03-03T08:23:14.314Z,1018.23
2023-03-03T08:24:14.289Z,1018.24
2023-03-03T08:25:14.284Z,1018.25
2023-03-03T08:26:14.262Z,1018.23
2023-03-03T08:27:14.257Z,1018.23
2023-03-03T08:28:14.244Z,1018.24
2023-03-03T08:29:14.239Z,1018.25
2023-03-03T08:30:14.200Z,1018.26
2023-03-03T08:31:22.607Z,1018.26
2023-03-03T08:32:14.404Z,1018.25
2023-03-03T08:33:14.204Z,1018.24
2023-03-03T08:34:14.163Z,1018.25
2023-03-03T08:35:14.171Z,1018.26
2023-03-03T08:36:14.143Z,1018.24
2023-03-03T08:37:14.150Z,1018.22
2023-03-03T08:38:14.128Z,1018.25
2023-03-03T08:39:14.132Z,1018.25
2023-03-03T08:40:14.101Z,1018.27
2023-03-03T08:41:14.111Z,1018.28
2023-03-03T08:42:16.149Z,1018.30
2023-03-03T08:43:14.102Z,1018.31
2023-03-03T08:44:14.053Z,1018.30
2023-03-03T08:45:14.071Z,1018.30
2023-03-03T08:46:14.066Z,1018.29
2023-03-03T08:47:14.049Z,1018.28
2023-03-03T08:48:14.021Z,1018.30
2023-03-03T08:49:14.050Z,1018.31
2023-03-03T08:50:14.005Z,1018.30
2023-03-03T08:51:14.004Z,1018.29
2023-03-03T08:52:13.971Z,1018.28
2023-03-03T08:53:13.992Z,1018.27
2023-03-03T08:54:13.955Z,1018.26
2023-03-03T08:55:13.985Z,1018.24
2023-03-03T08:56:13.946Z,1018.24
2023-03-03T08:57:13.958Z,1018.24
2023-03-03T08:58:13.913Z,1018.23
2023-03-03T08:59:13.932Z,1018.22
2023-03-03T09:00:13.936Z,1018.22
2023-03-03T09:01:13.906Z,1018.22
2023-03-03T09:02:13.886Z,1018.22
2023-03-03T09:03:13.887Z,1018.21
2023-03-03T09:04:13.881Z,1018.20
2023-03-03T09:05:13.873Z,1018.21
2023-03-03T09:06:13.931Z,1018.23
2023-03-03T09:07:13.849Z,1018.23
2023-03-03T09:08:13.810Z,1018.25
2023-03-03T09:09:13.824Z,1018.25
2023-03-03T09:10:13.788Z,1018.24
2023-03-03T09:11:13.801Z,1018.25
2023-03-03T09:12:13.780Z,1018.26
2023-03-03T09:13:13.784Z,1018.28
2023-03-03T09:14:13.794Z,1018.28
2023-03-03T09:15:13.758Z,1018.31
2023-03-03T09:16:13.750Z,1018.32
2023-03-03T09:17:13.753Z,1018.34
2023-03-03T09:18:13.716Z,1018.35
2023-03-03T09:19:13.722Z,1018.38
2023-03-03T09:20:13.686Z,1018.39
2023-03-03T09:21:13.705Z,1018.40
2023-03-03T09:22:13.662Z,1018.42
2023-03-03T09:23:13.689Z,1018.42
2023-03-03T09:24:13.646Z,1018.43
2023-03-03T09:25:13.654Z,1018.44
2023-03-03T09:26:13.622Z,1018.45
2023-03-03T09:27:13.640Z,1018.45
2023-03-03T09:28:13.612Z,1018.50
2023-03-03T09:29:13.618Z,1018.49
2023-03-03T09:30:13.589Z,1018.49
2023-03-03T09:31:13.600Z,1018.48
2023-03-03T09:32:13.570Z,1018.49
2023-03-03T09:33:13.593Z,1018.49
2023-03-03T09:34:13.543Z,1018.50
2023-03-03T09:35:13.549Z,1018.50
2023-03-03T09:36:13.556Z,1018.50
2023-03-03T09:37:15.389Z,1018.50
2023-03-03T09:38:13.497Z,1018.49
2023-03-03T09:39:13.522Z,1018.49
2023-03-03T09:40:13.477Z,1018.49
2023-03-03T09:41:13.485Z,1018.48
2023-03-03T09:42:13.474Z,1018.48
2023-03-03T09:43:13.469Z,1018.48
2023-03-03T09:44:13.444Z,1018.50
2023-03-03T09:45:13.446Z,1018.49
2023-03-03T09:46:13.516Z,1018.48
2023-03-03T09:47:13.428Z,1018.48
2023-03-03T09:48:13.396Z,1018.48
2023-03-03T09:49:13.427Z,1018.50
2023-03-03T09:50:13.373Z,1018.51
2023-03-03T09:51:13.394Z,1018.51
2023-03-03T09:52:13.350Z,1018.52
2023-03-03T09:53:13.367Z,1018.53
2023-03-03T09:54:13.332Z,1018.54
2023-03-03T09:55:13.362Z,1018.55
2023-03-03T09:56:13.312Z,1018.56
2023-03-03T09:57:13.323Z,1018.56
2023-03-03T09:58:13.290Z,1018.57
2023-03-03T09:59:13.314Z,1018.58
2023-03-03T10:00:13.289Z,1018.58
2023-03-03T10:01:13.309Z,1018.58
2023-03-03T10:02:13.252Z,1018.60
2023-03-03T10:03:13.358Z,1018.61
2023-03-03T10:04:13.331Z,1018.61
2023-03-03T10:05:14.521Z,1018.62
2023-03-03T10:06:13.206Z,1018.64
2023-03-03T10:07:13.232Z,1018.65
2023-03-03T10:08:13.191Z,1018.66
2023-03-03T10:09:13.204Z,1018.69
2023-03-03T10:10:13.182Z,1018.70
2023-03-03T10:11:13.177Z,1018.71
2023-03-03T10:12:13.157Z,1018.72
2023-03-03T10:13:13.160Z,1018.73
2023-03-03T10:14:13.168Z,1018.73
2023-03-03T10:15:13.146Z,1018.75
2023-03-03T10:16:13.143Z,1018.75
2023-03-03T10:17:13.132Z,1018.76
2023-03-03T10:18:13.082Z,1018.75
2023-03-03T10:19:13.096Z,1018.78
2023-03-03T10:20:13.061Z,1018.80
2023-03-03T10:21:13.074Z,1018.81
2023-03-03T10:22:13.060Z,1018.82
2023-03-03T10:23:13.067Z,1018.83
2023-03-03T10:24:13.023Z,1018.83
2023-03-03T10:25:13.037Z,1018.84
2023-03-03T10:26:13.006Z,1018.84
2023-03-03T10:27:14.360Z,1018.83
2023-03-03T10:28:13.002Z,1018.83
2023-03-03T10:29:12.990Z,1018.83
2023-03-03T10:30:12.958Z,1018.85
2023-03-03T10:31:17.677Z,1018.84
2023-03-03T10:32:13.246Z,1018.85
2023-03-03T10:33:13.586Z,1018.86
2023-03-03T10:34:12.950Z,1018.88
2023-03-03T10:35:12.935Z,1018.87
2023-03-03T10:36:13.238Z,1018.86
2023-03-03T10:37:12.917Z,1018.86
2023-03-03T10:38:12.880Z,1018.88
2023-03-03T10:39:12.895Z,1018.88
2023-03-03T10:40:12.864Z,1018.88
2023-03-03T10:41:12.871Z,1018.87
2023-03-03T10:42:12.847Z,1018.85
2023-03-03T10:43:22.415Z,1018.85
2023-03-03T10:44:12.820Z,1018.86
2023-03-03T10:45:12.845Z,1018.86
2023-03-03T10:46:12.998Z,1018.86
2023-03-03T10:47:12.809Z,1018.85
2023-03-03T10:48:12.778Z,1018.84
2023-03-03T10:49:12.784Z,1018.83
2023-03-03T10:50:12.750Z,1018.82
2023-03-03T10:51:12.773Z,1018.82
2023-03-03T10:52:12.738Z,1018.83
2023-03-03T10:53:12.751Z,1018.84
2023-03-03T10:54:12.715Z,1018.85
2023-03-03T10:55:12.724Z,1018.84
2023-03-03T10:56:12.874Z,1018.83
2023-03-03T10:57:12.701Z,1018.82
2023-03-03T10:58:12.669Z,1018.83
2023-03-03T10:59:12.686Z,1018.84
2023-03-03T11:00:12.647Z,1018.85
2023-03-03T11:01:12.705Z,1018.84
2023-03-03T11:02:12.662Z,1018.83
2023-03-03T11:03:12.638Z,1018.83
2023-03-03T11:04:12.697Z,1018.84
2023-03-03T11:05:12.626Z,1018.83
2023-03-03T11:06:12.586Z,1018.82
2023-03-03T11:07:12.602Z,1018.82
2023-03-03T11:08:12.584Z,1018.83
2023-03-03T11:09:12.578Z,1018.84
2023-03-03T11:10:12.543Z,1018.84
2023-03-03T11:11:12.570Z,1018.83
2023-03-03T11:12:12.544Z,1018.82
2023-03-03T11:13:12.558Z,1018.81
2023-03-03T11:14:12.516Z,1018.83
2023-03-03T11:15:12.516Z,1018.83
2023-03-03T11:16:12.487Z,1018.84
2023-03-03T11:17:12.502Z,1018.85
2023-03-03T11:18:12.480Z,1018.86
2023-03-03T11:19:12.613Z,1018.86
2023-03-03T11:20:12.441Z,1018.86
2023-03-03T11:21:12.454Z,1018.86
2023-03-03T11:22:12.425Z,1018.87
2023-03-03T11:23:12.453Z,1018.87
2023-03-03T11:24:12.427Z,1018.87
2023-03-03T11:25:12.415Z,1018.88
2023-03-03T11:26:12.381Z,1018.87
2023-03-03T11:27:12.395Z,1018.86
2023-03-03T11:28:12.356Z,1018.83
2023-03-03T11:29:12.372Z,1018.81
2023-03-03T11:30:12.375Z,1018.81
2023-03-03T11:31:12.374Z,1018.81
2023-03-03T11:32:12.346Z,1018.80
2023-03-03T11:33:12.329Z,1018.79
2023-03-03T11:34:12.298Z,1018.78
2023-03-03T11:35:12.334Z,1018.77
2023-03-03T11:36:12.295Z,1018.76
2023-03-03T11:37:12.299Z,1018.75
2023-03-03T11:38:12.255Z,1018.75
2023-03-03T11:39:12.270Z,1018.74
2023-03-03T11:40:12.237Z,1018.74
2023-03-03T11:41:12.245Z,1018.73
2023-03-03T11:42:12.227Z,1018.72
2023-03-03T11:43:12.226Z,1018.72
2023-03-03T11:44:12.194Z,1018.72
2023-03-03T11:45:12.217Z,1018.71
2023-03-03T11:46:12.246Z,1018.69
2023-03-03T11:47:12.230Z,1018.67
2023-03-03T11:48:12.154Z,1018.66
2023-03-03T11:49:12.173Z,1018.64
2023-03-03T11:50:12.139Z,1018.63
2023-03-03T11:51:12.152Z,1018.62
2023-03-03T11:52:12.125Z,1018.60
2023-03-03T11:53:12.126Z,1018.58
2023-03-03T11:54:12.093Z,1018.57
2023-03-03T11:55:12.100Z,1018.54
2023-03-03T11:56:12.064Z,1018.54
2023-03-03T11:57:12.079Z,1018.53
2023-03-03T11:58:12.064Z,1018.51
2023-03-03T11:59:12.056Z,1018.51
2023-03-03T12:00:12.043Z,1018.49
2023-03-03T12:01:12.038Z,1018.50
2023-03-03T12:02:12.057Z,1018.50
2023-03-03T12:03:12.030Z,1018.49
2023-03-03T12:04:11.980Z,1018.50
2023-03-03T12:05:11.997Z,1018.49